Terminal Aerodrome Forecast
Issued by NWS

Home | Current Version | Previous Version | Text Only | Print | Product List | Glossary On
Versions: 1 2 3 4 5 6 7 8 9 10 11 12 13 14 15 16 17 18 19 20 21
000
FTUS41 KOKX 291440 AAA
TAFSWF
TAF AMD
KSWF 291440Z 2915/3018 VRB05KT P6SM SCT250
     FM291800 17009KT P6SM BKN250
     FM300100 VRB04KT P6SM SCT050 BKN120
     FM300500 VRB03KT 4SM -SHRA BR BKN050 OVC120
     FM300700 VRB03KT 2SM SHRA BR SCT015 BKN025
     FM301300 VRB04KT 2SM SHRA BR SCT007 BKN015
      AMD NOT SKED=

USA.gov is the U.S. government's official web portal to all federal, state and local government web resources and services.